KREO/REO METAR and TAF weather

Enter ICAO airport designator
Station Type Date Time Source
KREO METAR 2018/12/12 07:52 UTC NOAA

KREO 120752Z AUTO 15019G28KT 02/M02 A2987 RMK AO1 PK WND 15028/0745 SLP128 T00221022


Station Type Date Time Source
KREO Decoded METAR 2018/12/12 07:52 UTC NOAA

ROME, OR, United States (KREO) 42-35N 117-52W 1235M
Dec 12, 2018 - 02:52 AM EST / 2018.12.12 0752 UTC
Wind: from the SSE (150 degrees) at 22 MPH (19 KT) gusting to 32 MPH (28 KT):0
Temperature: 36.0 F (2.2 C)
Dew Point: 28.0 F (-2.2 C)
Relative Humidity: 72%
Pressure (altimeter): 29.87 in. Hg (1011 hPa)
ob: KREO 120752Z AUTO 15019G28KT 02/M02 A2987 RMK AO1 PK WND 15028/0745 SLP128 T00221022
cycle: 8

Station Type Date Time Source
KREO TAF UTC NOAA

Error!


Example: see airport list